sensor_id;sensor_type;location;lat;lon;timestamp;P1;durP1;ratioP1;P2;durP2;ratioP2
6775;SDS011;3425;51.376;5.222;2024-01-15T00:00:57;10.80;;;10.30;;
6775;SDS011;3425;51.376;5.222;2024-01-15T00:03:25;10.23;;;9.73;;
6775;SDS011;3425;51.376;5.222;2024-01-15T00:05:52;9.75;;;9.35;;
6775;SDS011;3425;51.376;5.222;2024-01-15T00:08:20;9.80;;;9.35;;
6775;SDS011;3425;51.376;5.222;2024-01-15T00:10:49;9.48;;;9.07;;
6775;SDS011;3425;51.376;5.222;2024-01-15T00:13:16;10.05;;;9.55;;
6775;SDS011;3425;51.376;5.222;2024-01-15T00:15:43;9.80;;;9.40;;
6775;SDS011;3425;51.376;5.222;2024-01-15T00:18:11;9.70;;;9.30;;
6775;SDS011;3425;51.376;5.222;2024-01-15T00:20:38;9.50;;;9.10;;
6775;SDS011;3425;51.376;5.222;2024-01-15T00:23:05;11.23;;;10.52;;
6775;SDS011;3425;51.376;5.222;2024-01-15T00:25:33;9.70;;;9.30;;
6775;SDS011;3425;51.376;5.222;2024-01-15T00:28:00;9.77;;;9.30;;
6775;SDS011;3425;51.376;5.222;2024-01-15T00:30:28;9.30;;;8.90;;
6775;SDS011;3425;51.376;5.222;2024-01-15T00:32:55;10.02;;;9.52;;
6775;SDS011;3425;51.376;5.222;2024-01-15T00:35:22;12.30;;;11.27;;
6775;SDS011;3425;51.376;5.222;2024-01-15T00:37:50;10.07;;;9.57;;
6775;SDS011;3425;51.376;5.222;2024-01-15T00:40:17;10.00;;;9.50;;
6775;SDS011;3425;51.376;5.222;2024-01-15T00:42:44;9.60;;;9.20;;
6775;SDS011;3425;51.376;5.222;2024-01-15T00:45:12;9.70;;;9.30;;
6775;SDS011;3425;51.376;5.222;2024-01-15T00:47:39;9.70;;;9.30;;
6775;SDS011;3425;51.376;5.222;2024-01-15T00:50:06;10.10;;;9.60;;
6775;SDS011;3425;51.376;5.222;2024-01-15T00:52:34;9.40;;;8.98;;
6775;SDS011;3425;51.376;5.222;2024-01-15T00:55:01;9.38;;;8.98;;
6775;SDS011;3425;51.376;5.222;2024-01-15T00:57:29;9.40;;;8.90;;
6775;SDS011;3425;51.376;5.222;2024-01-15T00:59:56;9.30;;;8.90;;
6775;SDS011;3425;51.376;5.222;2024-01-15T01:02:24;9.65;;;9.25;;
6775;SDS011;3425;51.376;5.222;2024-01-15T01:04:51;9.90;;;9.40;;
6775;SDS011;3425;51.376;5.222;2024-01-15T01:07:18;9.50;;;9.10;;
6775;SDS011;3425;51.376;5.222;2024-01-15T01:09:45;9.45;;;9.05;;
6775;SDS011;3425;51.376;5.222;2024-01-15T01:12:14;9.60;;;9.20;;
6775;SDS011;3425;51.376;5.222;2024-01-15T01:14:42;10.00;;;9.50;;
6775;SDS011;3425;51.376;5.222;2024-01-15T01:17:09;9.32;;;8.93;;
6775;SDS011;3425;51.376;5.222;2024-01-15T01:19:36;9.48;;;9.07;;
6775;SDS011;3425;51.376;5.222;2024-01-15T01:22:04;10.20;;;9.68;;
6775;SDS011;3425;51.376;5.222;2024-01-15T01:24:31;9.50;;;9.10;;
6775;SDS011;3425;51.376;5.222;2024-01-15T01:26:58;10.00;;;9.50;;
6775;SDS011;3425;51.376;5.222;2024-01-15T01:29:26;9.88;;;9.38;;
6775;SDS011;3425;51.376;5.222;2024-01-15T01:31:54;9.98;;;9.48;;
6775;SDS011;3425;51.376;5.222;2024-01-15T01:34:22;10.45;;;9.95;;
6775;SDS011;3425;51.376;5.222;2024-01-15T01:36:50;10.68;;;10.18;;
6775;SDS011;3425;51.376;5.222;2024-01-15T01:39:17;10.50;;;10.00;;
6775;SDS011;3425;51.376;5.222;2024-01-15T01:41:44;10.50;;;10.00;;
6775;SDS011;3425;51.376;5.222;2024-01-15T01:44:11;10.40;;;9.90;;
6775;SDS011;3425;51.376;5.222;2024-01-15T01:46:39;9.20;;;8.80;;
6775;SDS011;3425;51.376;5.222;2024-01-15T01:49:07;9.70;;;9.30;;
6775;SDS011;3425;51.376;5.222;2024-01-15T01:51:35;10.05;;;9.55;;
6775;SDS011;3425;51.376;5.222;2024-01-15T01:54:04;9.32;;;8.93;;
6775;SDS011;3425;51.376;5.222;2024-01-15T01:56:32;9.52;;;9.13;;
6775;SDS011;3425;51.376;5.222;2024-01-15T01:58:59;10.20;;;9.55;;
6775;SDS011;3425;51.376;5.222;2024-01-15T02:01:27;9.30;;;8.90;;
6775;SDS011;3425;51.376;5.222;2024-01-15T02:03:55;9.25;;;8.85;;
6775;SDS011;3425;51.376;5.222;2024-01-15T02:06:23;9.63;;;9.20;;
6775;SDS011;3425;51.376;5.222;2024-01-15T02:08:50;9.38;;;8.98;;
6775;SDS011;3425;51.376;5.222;2024-01-15T02:11:18;9.50;;;9.10;;
6775;SDS011;3425;51.376;5.222;2024-01-15T02:13:45;9.80;;;9.35;;
6775;SDS011;3425;51.376;5.222;2024-01-15T02:16:12;9.27;;;8.88;;
6775;SDS011;3425;51.376;5.222;2024-01-15T02:18:40;9.13;;;8.73;;
6775;SDS011;3425;51.376;5.222;2024-01-15T02:21:08;9.30;;;8.90;;
6775;SDS011;3425;51.376;5.222;2024-01-15T02:23:36;9.55;;;9.15;;
6775;SDS011;3425;51.376;5.222;2024-01-15T02:26:04;9.35;;;8.95;;
6775;SDS011;3425;51.376;5.222;2024-01-15T02:28:32;9.63;;;9.23;;
6775;SDS011;3425;51.376;5.222;2024-01-15T02:31:00;9.43;;;9.02;;
6775;SDS011;3425;51.376;5.222;2024-01-15T02:33:27;9.40;;;9.00;;
6775;SDS011;3425;51.376;5.222;2024-01-15T02:35:55;9.68;;;9.27;;
6775;SDS011;3425;51.376;5.222;2024-01-15T02:38:23;10.10;;;9.60;;
6775;SDS011;3425;51.376;5.222;2024-01-15T02:40:50;10.00;;;9.50;;
6775;SDS011;3425;51.376;5.222;2024-01-15T02:43:17;10.30;;;9.80;;
6775;SDS011;3425;51.376;5.222;2024-01-15T02:45:45;10.65;;;10.15;;
6775;SDS011;3425;51.376;5.222;2024-01-15T02:48:16;10.07;;;9.57;;
6775;SDS011;3425;51.376;5.222;2024-01-15T02:50:43;10.40;;;9.90;;
6775;SDS011;3425;51.376;5.222;2024-01-15T02:53:10;11.02;;;10.52;;
6775;SDS011;3425;51.376;5.222;2024-01-15T02:55:38;13.65;;;11.02;;
6775;SDS011;3425;51.376;5.222;2024-01-15T02:58:05;10.70;;;10.20;;
6775;SDS011;3425;51.376;5.222;2024-01-15T03:00:32;11.15;;;10.65;;
6775;SDS011;3425;51.376;5.222;2024-01-15T03:02:59;10.80;;;10.30;;
6775;SDS011;3425;51.376;5.222;2024-01-15T03:05:27;10.68;;;10.18;;
6775;SDS011;3425;51.376;5.222;2024-01-15T03:07:56;10.55;;;10.00;;
6775;SDS011;3425;51.376;5.222;2024-01-15T03:10:23;11.23;;;10.73;;
6775;SDS011;3425;51.376;5.222;2024-01-15T03:12:50;10.60;;;10.10;;
6775;SDS011;3425;51.376;5.222;2024-01-15T03:15:17;10.18;;;9.68;;
6775;SDS011;3425;51.376;5.222;2024-01-15T03:17:45;10.43;;;9.93;;
6775;SDS011;3425;51.376;5.222;2024-01-15T03:20:12;10.23;;;9.73;;
6775;SDS011;3425;51.376;5.222;2024-01-15T03:22:39;10.50;;;10.00;;
6775;SDS011;3425;51.376;5.222;2024-01-15T03:25:07;10.30;;;9.80;;
6775;SDS011;3425;51.376;5.222;2024-01-15T03:27:34;9.90;;;9.43;;
6775;SDS011;3425;51.376;5.222;2024-01-15T03:30:01;9.80;;;9.40;;
6775;SDS011;3425;51.376;5.222;2024-01-15T03:32:29;9.80;;;9.40;;
6775;SDS011;3425;51.376;5.222;2024-01-15T03:34:57;9.70;;;9.30;;
6775;SDS011;3425;51.376;5.222;2024-01-15T03:37:24;9.80;;;9.40;;
6775;SDS011;3425;51.376;5.222;2024-01-15T03:39:52;9.85;;;9.40;;
6775;SDS011;3425;51.376;5.222;2024-01-15T03:42:19;9.48;;;9.07;;
6775;SDS011;3425;51.376;5.222;2024-01-15T03:44:47;9.40;;;9.00;;
6775;SDS011;3425;51.376;5.222;2024-01-15T03:47:14;9.50;;;9.10;;
6775;SDS011;3425;51.376;5.222;2024-01-15T03:49:41;10.10;;;9.60;;
6775;SDS011;3425;51.376;5.222;2024-01-15T03:52:09;9.48;;;9.07;;
6775;SDS011;3425;51.376;5.222;2024-01-15T03:54:36;9.15;;;8.75;;
6775;SDS011;3425;51.376;5.222;2024-01-15T03:57:04;9.07;;;8.68;;
6775;SDS011;3425;51.376;5.222;2024-01-15T03:59:31;14.55;;;10.60;;
6775;SDS011;3425;51.376;5.222;2024-01-15T04:01:58;9.60;;;9.20;;
6775;SDS011;3425;51.376;5.222;2024-01-15T04:04:26;10.15;;;9.65;;
6775;SDS011;3425;51.376;5.222;2024-01-15T04:06:53;9.95;;;9.50;;
6775;SDS011;3425;51.376;5.222;2024-01-15T04:09:21;9.48;;;9.07;;
6775;SDS011;3425;51.376;5.222;2024-01-15T04:11:49;9.90;;;9.43;;
6775;SDS011;3425;51.376;5.222;2024-01-15T04:14:16;8.95;;;8.55;;
6775;SDS011;3425;51.376;5.222;2024-01-15T04:16:43;9.20;;;8.80;;
6775;SDS011;3425;51.376;5.222;2024-01-15T04:19:10;9.90;;;9.40;;
6775;SDS011;3425;51.376;5.222;2024-01-15T04:21:38;9.10;;;8.70;;
6775;SDS011;3425;51.376;5.222;2024-01-15T04:24:05;9.50;;;9.10;;
6775;SDS011;3425;51.376;5.222;2024-01-15T04:26:32;10.90;;;10.40;;
6775;SDS011;3425;51.376;5.222;2024-01-15T04:29:00;17.23;;;11.35;;
6775;SDS011;3425;51.376;5.222;2024-01-15T04:31:27;11.68;;;10.77;;
6775;SDS011;3425;51.376;5.222;2024-01-15T04:33:55;10.43;;;9.93;;
6775;SDS011;3425;51.376;5.222;2024-01-15T04:36:23;10.68;;;10.18;;
6775;SDS011;3425;51.376;5.222;2024-01-15T04:38:50;10.52;;;10.02;;
6775;SDS011;3425;51.376;5.222;2024-01-15T04:41:18;10.65;;;10.15;;
6775;SDS011;3425;51.376;5.222;2024-01-15T04:43:45;10.70;;;10.20;;
6775;SDS011;3425;51.376;5.222;2024-01-15T04:46:12;11.43;;;10.93;;
6775;SDS011;3425;51.376;5.222;2024-01-15T04:48:39;12.38;;;11.77;;
6775;SDS011;3425;51.376;5.222;2024-01-15T04:51:08;12.15;;;11.55;;
6775;SDS011;3425;51.376;5.222;2024-01-15T04:53:35;12.50;;;11.90;;
6775;SDS011;3425;51.376;5.222;2024-01-15T04:56:03;13.05;;;12.35;;
6775;SDS011;3425;51.376;5.222;2024-01-15T04:58:30;12.52;;;11.93;;
6775;SDS011;3425;51.376;5.222;2024-01-15T05:00:57;12.60;;;12.00;;
6775;SDS011;3425;51.376;5.222;2024-01-15T05:03:25;12.55;;;11.95;;
6775;SDS011;3425;51.376;5.222;2024-01-15T05:05:52;13.15;;;12.45;;
6775;SDS011;3425;51.376;5.222;2024-01-15T05:08:19;13.25;;;12.55;;
6775;SDS011;3425;51.376;5.222;2024-01-15T05:10:47;13.63;;;12.93;;
6775;SDS011;3425;51.376;5.222;2024-01-15T05:13:14;13.40;;;12.70;;
6775;SDS011;3425;51.376;5.222;2024-01-15T05:15:42;13.52;;;12.82;;
6775;SDS011;3425;51.376;5.222;2024-01-15T05:18:09;13.32;;;12.63;;
6775;SDS011;3425;51.376;5.222;2024-01-15T05:20:37;14.15;;;13.40;;
6775;SDS011;3425;51.376;5.222;2024-01-15T05:23:04;14.45;;;13.30;;
6775;SDS011;3425;51.376;5.222;2024-01-15T05:25:31;13.55;;;12.85;;
6775;SDS011;3425;51.376;5.222;2024-01-15T05:27:59;13.80;;;13.07;;
6775;SDS011;3425;51.376;5.222;2024-01-15T05:30:26;13.35;;;12.65;;
6775;SDS011;3425;51.376;5.222;2024-01-15T05:32:54;14.38;;;13.57;;
6775;SDS011;3425;51.376;5.222;2024-01-15T05:35:21;14.98;;;14.10;;
6775;SDS011;3425;51.376;5.222;2024-01-15T05:37:48;15.80;;;13.18;;
6775;SDS011;3425;51.376;5.222;2024-01-15T05:40:15;13.00;;;12.30;;
6775;SDS011;3425;51.376;5.222;2024-01-15T05:42:42;12.95;;;12.35;;
6775;SDS011;3425;51.376;5.222;2024-01-15T05:45:10;13.02;;;12.43;;
6775;SDS011;3425;51.376;5.222;2024-01-15T05:47:37;12.60;;;12.00;;
6775;SDS011;3425;51.376;5.222;2024-01-15T05:50:05;12.65;;;12.05;;
6775;SDS011;3425;51.376;5.222;2024-01-15T05:52:33;12.80;;;12.20;;
6775;SDS011;3425;51.376;5.222;2024-01-15T05:55:00;12.60;;;12.00;;
6775;SDS011;3425;51.376;5.222;2024-01-15T05:57:27;12.80;;;12.20;;
6775;SDS011;3425;51.376;5.222;2024-01-15T05:59:55;12.45;;;11.85;;
6775;SDS011;3425;51.376;5.222;2024-01-15T06:02:23;13.07;;;12.48;;
6775;SDS011;3425;51.376;5.222;2024-01-15T06:04:50;13.10;;;12.50;;
6775;SDS011;3425;51.376;5.222;2024-01-15T06:07:17;14.23;;;13.48;;
6775;SDS011;3425;51.376;5.222;2024-01-15T06:09:44;14.43;;;13.43;;
6775;SDS011;3425;51.376;5.222;2024-01-15T06:12:12;14.52;;;13.73;;
6775;SDS011;3425;51.376;5.222;2024-01-15T06:14:40;13.80;;;13.10;;
6775;SDS011;3425;51.376;5.222;2024-01-15T06:17:08;13.65;;;12.95;;
6775;SDS011;3425;51.376;5.222;2024-01-15T06:19:38;13.60;;;12.90;;
6775;SDS011;3425;51.376;5.222;2024-01-15T06:22:05;13.43;;;12.73;;
6775;SDS011;3425;51.376;5.222;2024-01-15T06:24:32;14.18;;;13.45;;
6775;SDS011;3425;51.376;5.222;2024-01-15T06:27:00;13.52;;;12.82;;
6775;SDS011;3425;51.376;5.222;2024-01-15T06:29:27;13.63;;;12.93;;
6775;SDS011;3425;51.376;5.222;2024-01-15T06:31:57;13.65;;;12.95;;
6775;SDS011;3425;51.376;5.222;2024-01-15T06:34:24;13.35;;;12.65;;
6775;SDS011;3425;51.376;5.222;2024-01-15T06:36:52;13.32;;;12.63;;
6775;SDS011;3425;51.376;5.222;2024-01-15T06:39:19;13.68;;;12.98;;
6775;SDS011;3425;51.376;5.222;2024-01-15T06:41:46;14.07;;;13.38;;
6775;SDS011;3425;51.376;5.222;2024-01-15T06:44:13;13.40;;;12.70;;
6775;SDS011;3425;51.376;5.222;2024-01-15T06:46:45;14.07;;;13.38;;
6775;SDS011;3425;51.376;5.222;2024-01-15T06:49:12;14.15;;;13.45;;
6775;SDS011;3425;51.376;5.222;2024-01-15T06:51:40;14.23;;;13.52;;
6775;SDS011;3425;51.376;5.222;2024-01-15T06:54:08;14.27;;;13.57;;
6775;SDS011;3425;51.376;5.222;2024-01-15T06:56:36;14.43;;;13.73;;
6775;SDS011;3425;51.376;5.222;2024-01-15T06:59:03;14.40;;;13.70;;
6775;SDS011;3425;51.376;5.222;2024-01-15T07:01:30;33.78;;;13.82;;
6775;SDS011;3425;51.376;5.222;2024-01-15T07:03:57;14.80;;;14.00;;
6775;SDS011;3425;51.376;5.222;2024-01-15T07:06:25;14.30;;;13.60;;
6775;SDS011;3425;51.376;5.222;2024-01-15T07:08:52;13.93;;;13.23;;
6775;SDS011;3425;51.376;5.222;2024-01-15T07:11:19;13.98;;;13.27;;
6775;SDS011;3425;51.376;5.222;2024-01-15T07:13:46;14.18;;;13.48;;
6775;SDS011;3425;51.376;5.222;2024-01-15T07:16:14;15.18;;;14.25;;
6775;SDS011;3425;51.376;5.222;2024-01-15T07:18:59;13.90;;;13.20;;
6775;SDS011;3425;51.376;5.222;2024-01-15T07:21:27;13.73;;;13.02;;
6775;SDS011;3425;51.376;5.222;2024-01-15T07:23:54;13.50;;;12.80;;
6775;SDS011;3425;51.376;5.222;2024-01-15T07:26:22;13.68;;;12.98;;
6775;SDS011;3425;51.376;5.222;2024-01-15T07:28:49;13.80;;;13.10;;
6775;SDS011;3425;51.376;5.222;2024-01-15T07:31:17;13.80;;;13.10;;
6775;SDS011;3425;51.376;5.222;2024-01-15T07:33:44;13.43;;;12.73;;
6775;SDS011;3425;51.376;5.222;2024-01-15T07:36:12;13.77;;;13.07;;
6775;SDS011;3425;51.376;5.222;2024-01-15T07:38:40;13.65;;;12.95;;
6775;SDS011;3425;51.376;5.222;2024-01-15T07:41:07;13.10;;;12.50;;
6775;SDS011;3425;51.376;5.222;2024-01-15T07:43:34;12.80;;;12.20;;
6775;SDS011;3425;51.376;5.222;2024-01-15T07:46:02;12.75;;;12.15;;
6775;SDS011;3425;51.376;5.222;2024-01-15T07:48:29;13.60;;;12.90;;
6775;SDS011;3425;51.376;5.222;2024-01-15T07:50:59;14.90;;;13.68;;
6775;SDS011;3425;51.376;5.222;2024-01-15T07:53:27;12.95;;;12.35;;
6775;SDS011;3425;51.376;5.222;2024-01-15T07:55:55;13.48;;;12.77;;
6775;SDS011;3425;51.376;5.222;2024-01-15T07:58:22;13.35;;;12.65;;
6775;SDS011;3425;51.376;5.222;2024-01-15T08:00:49;13.15;;;12.52;;
6775;SDS011;3425;51.376;5.222;2024-01-15T08:03:18;13.63;;;12.93;;
6775;SDS011;3425;51.376;5.222;2024-01-15T08:05:46;14.00;;;13.30;;
6775;SDS011;3425;51.376;5.222;2024-01-15T08:08:13;13.52;;;12.82;;
6775;SDS011;3425;51.376;5.222;2024-01-15T08:10:41;13.95;;;13.25;;
6775;SDS011;3425;51.376;5.222;2024-01-15T08:13:08;13.90;;;13.20;;
6775;SDS011;3425;51.376;5.222;2024-01-15T08:15:35;13.35;;;12.65;;
6775;SDS011;3425;51.376;5.222;2024-01-15T08:18:03;13.10;;;12.50;;
6775;SDS011;3425;51.376;5.222;2024-01-15T08:20:33;13.13;;;12.52;;
6775;SDS011;3425;51.376;5.222;2024-01-15T08:23:00;13.27;;;12.60;;
6775;SDS011;3425;51.376;5.222;2024-01-15T08:25:28;13.65;;;12.95;;
6775;SDS011;3425;51.376;5.222;2024-01-15T08:27:57;13.80;;;13.10;;
6775;SDS011;3425;51.376;5.222;2024-01-15T08:30:25;14.30;;;13.60;;
6775;SDS011;3425;51.376;5.222;2024-01-15T08:32:55;13.90;;;13.20;;
6775;SDS011;3425;51.376;5.222;2024-01-15T08:35:27;13.75;;;13.05;;
6775;SDS011;3425;51.376;5.222;2024-01-15T08:37:55;13.73;;;13.02;;
6775;SDS011;3425;51.376;5.222;2024-01-15T08:40:24;14.20;;;13.50;;
6775;SDS011;3425;51.376;5.222;2024-01-15T08:42:51;13.90;;;13.20;;
6775;SDS011;3425;51.376;5.222;2024-01-15T08:45:19;13.82;;;13.13;;
6775;SDS011;3425;51.376;5.222;2024-01-15T08:47:48;13.65;;;12.95;;
6775;SDS011;3425;51.376;5.222;2024-01-15T08:50:15;13.57;;;12.88;;
6775;SDS011;3425;51.376;5.222;2024-01-15T08:52:42;13.48;;;12.77;;
6775;SDS011;3425;51.376;5.222;2024-01-15T08:55:09;13.43;;;12.73;;
6775;SDS011;3425;51.376;5.222;2024-01-15T08:57:37;13.70;;;13.00;;
6775;SDS011;3425;51.376;5.222;2024-01-15T09:00:04;13.73;;;13.02;;
6775;SDS011;3425;51.376;5.222;2024-01-15T09:02:34;13.68;;;12.98;;
6775;SDS011;3425;51.376;5.222;2024-01-15T09:05:02;14.10;;;13.40;;
6775;SDS011;3425;51.376;5.222;2024-01-15T09:07:30;14.43;;;13.73;;
6775;SDS011;3425;51.376;5.222;2024-01-15T09:09:58;14.45;;;13.70;;
6775;SDS011;3425;51.376;5.222;2024-01-15T09:12:26;14.70;;;13.90;;
6775;SDS011;3425;51.376;5.222;2024-01-15T09:14:54;14.70;;;13.90;;
6775;SDS011;3425;51.376;5.222;2024-01-15T09:17:22;14.70;;;13.90;;
6775;SDS011;3425;51.376;5.222;2024-01-15T09:19:57;14.88;;;14.07;;
6775;SDS011;3425;51.376;5.222;2024-01-15T09:22:24;14.98;;;14.18;;
6775;SDS011;3425;51.376;5.222;2024-01-15T09:24:52;14.88;;;14.07;;
6775;SDS011;3425;51.376;5.222;2024-01-15T09:27:19;15.05;;;14.25;;
6775;SDS011;3425;51.376;5.222;2024-01-15T09:29:46;14.57;;;13.88;;
6775;SDS011;3425;51.376;5.222;2024-01-15T09:32:14;16.05;;;15.15;;
6775;SDS011;3425;51.376;5.222;2024-01-15T09:34:42;15.45;;;14.65;;
6775;SDS011;3425;51.376;5.222;2024-01-15T09:37:09;14.73;;;13.93;;
6775;SDS011;3425;51.376;5.222;2024-01-15T09:39:44;14.45;;;13.75;;
6775;SDS011;3425;51.376;5.222;2024-01-15T09:42:13;14.90;;;14.10;;
6775;SDS011;3425;51.376;5.222;2024-01-15T09:44:40;15.13;;;14.32;;
6775;SDS011;3425;51.376;5.222;2024-01-15T09:47:07;15.60;;;14.80;;
6775;SDS011;3425;51.376;5.222;2024-01-15T09:49:35;16.05;;;15.15;;
6775;SDS011;3425;51.376;5.222;2024-01-15T09:52:05;15.13;;;14.32;;
6775;SDS011;3425;51.376;5.222;2024-01-15T09:54:37;17.90;;;16.50;;
6775;SDS011;3425;51.376;5.222;2024-01-15T09:57:06;16.33;;;15.43;;
6775;SDS011;3425;51.376;5.222;2024-01-15T09:59:34;16.90;;;15.80;;
6775;SDS011;3425;51.376;5.222;2024-01-15T10:02:02;16.52;;;15.57;;
6775;SDS011;3425;51.376;5.222;2024-01-15T10:04:30;16.67;;;15.68;;
6775;SDS011;3425;51.376;5.222;2024-01-15T10:06:57;18.77;;;17.08;;
6775;SDS011;3425;51.376;5.222;2024-01-15T10:09:25;16.50;;;15.50;;
6775;SDS011;3425;51.376;5.222;2024-01-15T10:11:53;17.27;;;15.93;;
6775;SDS011;3425;51.376;5.222;2024-01-15T10:14:20;19.23;;;15.98;;
6775;SDS011;3425;51.376;5.222;2024-01-15T10:16:48;16.38;;;15.48;;
6775;SDS011;3425;51.376;5.222;2024-01-15T10:19:16;17.13;;;16.13;;
6775;SDS011;3425;51.376;5.222;2024-01-15T10:21:43;17.20;;;16.20;;
6775;SDS011;3425;51.376;5.222;2024-01-15T10:24:10;16.10;;;15.20;;
6775;SDS011;3425;51.376;5.222;2024-01-15T10:26:39;16.85;;;15.85;;
6775;SDS011;3425;51.376;5.222;2024-01-15T10:29:06;16.02;;;15.13;;
6775;SDS011;3425;51.376;5.222;2024-01-15T10:31:33;15.90;;;15.00;;
6775;SDS011;3425;51.376;5.222;2024-01-15T10:34:13;16.48;;;15.50;;
6775;SDS011;3425;51.376;5.222;2024-01-15T10:36:42;16.42;;;15.52;;
6775;SDS011;3425;51.376;5.222;2024-01-15T10:39:14;15.98;;;15.07;;
6775;SDS011;3425;51.376;5.222;2024-01-15T10:41:42;16.52;;;15.55;;
6775;SDS011;3425;51.376;5.222;2024-01-15T10:44:09;16.23;;;15.32;;
6775;SDS011;3425;51.376;5.222;2024-01-15T10:46:37;16.02;;;15.13;;
6775;SDS011;3425;51.376;5.222;2024-01-15T10:49:04;16.90;;;15.90;;
6775;SDS011;3425;51.376;5.222;2024-01-15T10:51:32;15.95;;;15.05;;
6775;SDS011;3425;51.376;5.222;2024-01-15T10:53:59;16.17;;;15.27;;
6775;SDS011;3425;51.376;5.222;2024-01-15T10:56:27;15.98;;;15.07;;
6775;SDS011;3425;51.376;5.222;2024-01-15T10:58:55;16.15;;;15.25;;
6775;SDS011;3425;51.376;5.222;2024-01-15T11:01:26;15.95;;;15.05;;
6775;SDS011;3425;51.376;5.222;2024-01-15T11:03:56;15.90;;;15.00;;
6775;SDS011;3425;51.376;5.222;2024-01-15T11:06:24;15.98;;;15.07;;
6775;SDS011;3425;51.376;5.222;2024-01-15T11:08:52;15.85;;;14.95;;
6775;SDS011;3425;51.376;5.222;2024-01-15T11:11:21;16.23;;;15.32;;
6775;SDS011;3425;51.376;5.222;2024-01-15T11:13:49;15.95;;;15.05;;
6775;SDS011;3425;51.376;5.222;2024-01-15T11:16:18;15.68;;;14.77;;
6775;SDS011;3425;51.376;5.222;2024-01-15T11:21:25;15.80;;;14.90;;
6775;SDS011;3425;51.376;5.222;2024-01-15T11:23:57;15.80;;;14.90;;
6775;SDS011;3425;51.376;5.222;2024-01-15T11:26:35;16.02;;;15.13;;
6775;SDS011;3425;51.376;5.222;2024-01-15T11:29:04;15.82;;;14.93;;
6775;SDS011;3425;51.376;5.222;2024-01-15T11:34:06;15.73;;;14.82;;
6775;SDS011;3425;51.376;5.222;2024-01-15T11:41:57;15.75;;;14.85;;
6775;SDS011;3425;51.376;5.222;2024-01-15T11:44:25;17.05;;;15.95;;
6775;SDS011;3425;51.376;5.222;2024-01-15T11:46:57;15.80;;;14.90;;
6775;SDS011;3425;51.376;5.222;2024-01-15T11:52:12;15.50;;;14.60;;
6775;SDS011;3425;51.376;5.222;2024-01-15T11:54:42;16.02;;;15.13;;
6775;SDS011;3425;51.376;5.222;2024-01-15T11:57:15;15.68;;;14.77;;
6775;SDS011;3425;51.376;5.222;2024-01-15T11:59:48;15.73;;;14.82;;
6775;SDS011;3425;51.376;5.222;2024-01-15T12:02:16;15.80;;;14.90;;
6775;SDS011;3425;51.376;5.222;2024-01-15T12:04:43;16.13;;;15.18;;
6775;SDS011;3425;51.376;5.222;2024-01-15T12:07:10;15.90;;;15.00;;
6775;SDS011;3425;51.376;5.222;2024-01-15T12:09:43;15.77;;;14.88;;
6775;SDS011;3425;51.376;5.222;2024-01-15T12:12:12;15.90;;;15.00;;
6775;SDS011;3425;51.376;5.222;2024-01-15T12:14:42;16.00;;;15.10;;
6775;SDS011;3425;51.376;5.222;2024-01-15T12:17:09;15.80;;;14.90;;
6775;SDS011;3425;51.376;5.222;2024-01-15T12:19:38;16.15;;;15.25;;
6775;SDS011;3425;51.376;5.222;2024-01-15T12:22:05;15.90;;;15.00;;
6775;SDS011;3425;51.376;5.222;2024-01-15T12:24:33;15.98;;;15.07;;
6775;SDS011;3425;51.376;5.222;2024-01-15T12:27:01;16.00;;;15.10;;
6775;SDS011;3425;51.376;5.222;2024-01-15T12:29:29;16.05;;;15.15;;
6775;SDS011;3425;51.376;5.222;2024-01-15T12:31:59;16.35;;;15.35;;
6775;SDS011;3425;51.376;5.222;2024-01-15T12:34:28;16.52;;;15.52;;
6775;SDS011;3425;51.376;5.222;2024-01-15T12:36:58;16.55;;;15.55;;
6775;SDS011;3425;51.376;5.222;2024-01-15T12:39:26;16.30;;;15.35;;
6775;SDS011;3425;51.376;5.222;2024-01-15T12:41:53;16.48;;;15.48;;
6775;SDS011;3425;51.376;5.222;2024-01-15T12:44:21;16.48;;;15.48;;
6775;SDS011;3425;51.376;5.222;2024-01-15T12:46:48;17.10;;;16.00;;
6775;SDS011;3425;51.376;5.222;2024-01-15T12:49:15;16.52;;;15.52;;
6775;SDS011;3425;51.376;5.222;2024-01-15T12:51:43;16.35;;;15.40;;
6775;SDS011;3425;51.376;5.222;2024-01-15T12:54:10;15.98;;;15.07;;
6775;SDS011;3425;51.376;5.222;2024-01-15T12:56:38;16.13;;;15.23;;
6775;SDS011;3425;51.376;5.222;2024-01-15T12:59:05;16.00;;;15.10;;
6775;SDS011;3425;51.376;5.222;2024-01-15T13:01:33;16.30;;;15.40;;
6775;SDS011;3425;51.376;5.222;2024-01-15T13:04:02;16.27;;;15.38;;
6775;SDS011;3425;51.376;5.222;2024-01-15T13:06:30;16.17;;;15.27;;
6775;SDS011;3425;51.376;5.222;2024-01-15T13:08:57;16.13;;;15.23;;
6775;SDS011;3425;51.376;5.222;2024-01-15T13:11:24;16.40;;;15.40;;
6775;SDS011;3425;51.376;5.222;2024-01-15T13:13:52;16.17;;;15.27;;
6775;SDS011;3425;51.376;5.222;2024-01-15T13:16:19;16.50;;;15.50;;
6775;SDS011;3425;51.376;5.222;2024-01-15T13:18:50;16.50;;;15.50;;
6775;SDS011;3425;51.376;5.222;2024-01-15T13:21:18;16.17;;;15.25;;
6775;SDS011;3425;51.376;5.222;2024-01-15T13:23:45;15.95;;;15.05;;
6775;SDS011;3425;51.376;5.222;2024-01-15T13:26:13;16.42;;;15.43;;
6775;SDS011;3425;51.376;5.222;2024-01-15T13:28:40;16.27;;;15.27;;
6775;SDS011;3425;51.376;5.222;2024-01-15T13:31:07;16.50;;;15.50;;
6775;SDS011;3425;51.376;5.222;2024-01-15T13:33:35;16.30;;;15.38;;
6775;SDS011;3425;51.376;5.222;2024-01-15T13:36:05;16.17;;;15.27;;
6775;SDS011;3425;51.376;5.222;2024-01-15T13:38:37;16.23;;;15.30;;
6775;SDS011;3425;51.376;5.222;2024-01-15T13:41:04;16.08;;;15.18;;
6775;SDS011;3425;51.376;5.222;2024-01-15T13:43:32;16.42;;;15.43;;
6775;SDS011;3425;51.376;5.222;2024-01-15T13:45:59;15.90;;;15.00;;
6775;SDS011;3425;51.376;5.222;2024-01-15T13:48:26;16.48;;;15.48;;
6775;SDS011;3425;51.376;5.222;2024-01-15T13:50:55;16.48;;;15.48;;
6775;SDS011;3425;51.376;5.222;2024-01-15T13:53:23;16.55;;;15.55;;
6775;SDS011;3425;51.376;5.222;2024-01-15T13:55:50;16.25;;;15.30;;
6775;SDS011;3425;51.376;5.222;2024-01-15T13:58:18;16.40;;;15.40;;
6775;SDS011;3425;51.376;5.222;2024-01-15T14:00:47;16.13;;;15.23;;
6775;SDS011;3425;51.376;5.222;2024-01-15T14:03:15;16.45;;;15.45;;
6775;SDS011;3425;51.376;5.222;2024-01-15T14:05:42;17.00;;;15.80;;
6775;SDS011;3425;51.376;5.222;2024-01-15T14:08:10;16.00;;;15.10;;
6775;SDS011;3425;51.376;5.222;2024-01-15T14:10:38;15.90;;;15.00;;
6775;SDS011;3425;51.376;5.222;2024-01-15T14:13:05;15.55;;;14.65;;
6775;SDS011;3425;51.376;5.222;2024-01-15T14:15:33;15.63;;;14.73;;
6775;SDS011;3425;51.376;5.222;2024-01-15T14:18:00;16.17;;;15.27;;
6775;SDS011;3425;51.376;5.222;2024-01-15T14:20:27;16.55;;;15.55;;
6775;SDS011;3425;51.376;5.222;2024-01-15T14:22:56;16.40;;;15.40;;
6775;SDS011;3425;51.376;5.222;2024-01-15T14:25:23;15.80;;;14.90;;
6775;SDS011;3425;51.376;5.222;2024-01-15T14:27:50;16.40;;;15.40;;
6775;SDS011;3425;51.376;5.222;2024-01-15T14:30:18;16.20;;;15.30;;
6775;SDS011;3425;51.376;5.222;2024-01-15T14:32:45;16.50;;;15.50;;
6775;SDS011;3425;51.376;5.222;2024-01-15T14:35:13;16.27;;;15.35;;
6775;SDS011;3425;51.376;5.222;2024-01-15T14:37:41;16.00;;;15.10;;
6775;SDS011;3425;51.376;5.222;2024-01-15T14:40:08;16.35;;;15.38;;
6775;SDS011;3425;51.376;5.222;2024-01-15T14:42:36;15.98;;;15.07;;
6775;SDS011;3425;51.376;5.222;2024-01-15T14:45:05;15.95;;;15.05;;
6775;SDS011;3425;51.376;5.222;2024-01-15T14:47:38;16.20;;;15.30;;
6775;SDS011;3425;51.376;5.222;2024-01-15T14:50:06;15.88;;;14.98;;
6775;SDS011;3425;51.376;5.222;2024-01-15T14:52:33;16.10;;;15.20;;
6775;SDS011;3425;51.376;5.222;2024-01-15T14:55:01;16.42;;;15.43;;
6775;SDS011;3425;51.376;5.222;2024-01-15T14:57:29;15.32;;;14.43;;
6775;SDS011;3425;51.376;5.222;2024-01-15T14:59:56;15.75;;;14.85;;
6775;SDS011;3425;51.376;5.222;2024-01-15T15:02:24;16.00;;;15.10;;
6775;SDS011;3425;51.376;5.222;2024-01-15T15:04:58;15.70;;;14.80;;
6775;SDS011;3425;51.376;5.222;2024-01-15T15:07:26;15.55;;;14.65;;
6775;SDS011;3425;51.376;5.222;2024-01-15T15:09:54;15.70;;;14.80;;